createdAt,value
2019-06-07T00:01:11.328Z,77.30
2019-06-07T00:06:23.627Z,78.40
2019-06-07T00:11:22.018Z,77.60
2019-06-07T00:16:26.471Z,77.60
2019-06-07T00:22:12.683Z,77.70
2019-06-07T00:26:57.083Z,77.70
2019-06-07T00:31:43.045Z,77.40
2019-06-07T00:36:47.396Z,77.40
2019-06-07T00:41:51.849Z,77.50
2019-06-07T00:46:56.367Z,77.60
2019-06-07T00:52:00.769Z,77.80
2019-06-07T00:57:05.402Z,77.70
2019-06-07T01:02:09.967Z,78.00
2019-06-07T01:07:33.648Z,78.00
2019-06-07T01:12:37.987Z,77.70
2019-06-07T01:18:32.429Z,77.80
2019-06-07T01:22:48.416Z,77.80
2019-06-07T01:27:52.767Z,78.00
2019-06-07T01:32:57.119Z,78.00
2019-06-07T01:38:01.461Z,78.10
2019-06-07T01:43:05.879Z,78.40
2019-06-07T01:48:10.237Z,78.70
2019-06-07T01:53:18.725Z,78.90
2019-06-07T01:58:22.230Z,79.00
2019-06-07T02:03:32.250Z,79.00
2019-06-07T02:08:34.193Z,79.10
2019-06-07T02:13:38.848Z,79.20
2019-06-07T02:19:00.718Z,79.20
2019-06-07T02:23:49.518Z,79.40
2019-06-07T02:28:53.879Z,79.50
2019-06-07T02:33:58.250Z,79.70
2019-06-07T02:39:24.024Z,79.80
2019-06-07T02:44:32.198Z,80.00
2019-06-07T02:49:40.538Z,79.80
2019-06-07T02:54:40.893Z,79.80
2019-06-07T03:00:06.560Z,79.90
2019-06-07T03:04:51.614Z,80.30
2019-06-07T03:09:56.722Z,80.30
2019-06-07T03:15:02.739Z,80.20
2019-06-07T03:20:10.201Z,80.50
2019-06-07T03:25:14.694Z,80.20
2019-06-07T03:30:39.133Z,80.10
2019-06-07T03:35:28.487Z,80.20
2019-06-07T03:40:36.767Z,80.20
2019-06-07T03:45:41.536Z,80.30
2019-06-07T03:50:45.482Z,80.50
2019-06-07T03:55:49.837Z,80.20
2019-06-07T04:00:54.194Z,80.60
2019-06-07T04:05:58.534Z,80.40
2019-06-07T04:11:02.925Z,80.80
2019-06-07T04:16:07.711Z,80.80
2019-06-07T04:21:12.052Z,81.00
2019-06-07T04:26:16.405Z,81.10
2019-06-07T04:31:22.175Z,81.10
2019-06-07T04:36:44.294Z,81.30
2019-06-07T04:41:55.514Z,81.30
2019-06-07T04:47:01.519Z,81.40
2019-06-07T04:52:06.474Z,81.30
2019-06-07T04:57:10.824Z,81.20
2019-06-07T05:02:15.162Z,81.00
2019-06-07T05:07:19.511Z,80.90
2019-06-07T05:12:23.866Z,81.10
2019-06-07T05:17:28.885Z,81.10
2019-06-07T05:22:38.898Z,80.70
2019-06-07T05:27:46.333Z,80.70
2019-06-07T05:32:47.087Z,80.70
2019-06-07T05:37:51.676Z,80.80
2019-06-07T05:42:56.026Z,80.90
2019-06-07T05:48:00.509Z,80.30
2019-06-07T05:53:05.515Z,81.50
2019-06-07T05:58:09.867Z,80.30
2019-06-07T06:03:14.212Z,80.40
2019-06-07T06:08:18.788Z,80.50
2019-06-07T06:13:23.203Z,79.90
2019-06-07T06:18:27.566Z,81.30
2019-06-07T06:23:31.929Z,82.40
2019-06-07T06:28:37.195Z,84.70
2019-06-07T06:33:43.402Z,82.40
2019-06-07T06:38:49.725Z,77.50
2019-06-07T06:43:54.481Z,77.40
2019-06-07T06:48:59.238Z,76.90
2019-06-07T06:54:03.806Z,76.10
2019-06-07T07:04:15.169Z,75.70
2019-06-07T07:09:19.932Z,75.90
2019-06-07T07:14:24.272Z,76.00
2019-06-07T07:19:28.611Z,75.60
2019-06-07T07:24:32.958Z,75.50
2019-06-07T07:29:37.334Z,75.00
2019-06-07T07:34:45.535Z,74.80
2019-06-07T07:39:50.621Z,74.20
2019-06-07T07:44:56.534Z,74.30
2019-06-07T07:49:59.844Z,73.70
2019-06-07T07:55:05.421Z,73.90
2019-06-07T08:00:48.757Z,73.50
2019-06-07T08:05:23.411Z,71.40
2019-06-07T08:10:22.860Z,71.50
2019-06-07T08:15:27.273Z,70.80
2019-06-07T08:20:31.629Z,71.30
2019-06-07T08:25:35.993Z,71.40
2019-06-07T08:30:52.355Z,71.40
2019-06-07T08:40:56.808Z,68.90
2019-06-07T08:46:04.409Z,70.10
2019-06-07T08:51:08.224Z,69.40
2019-06-07T08:56:30.059Z,69.40
2019-06-07T09:01:53.700Z,68.70
2019-06-07T09:07:14.731Z,69.20
2019-06-07T09:12:08.076Z,69.60
2019-06-07T09:17:12.086Z,67.80
2019-06-07T09:22:14.291Z,67.10
2019-06-07T09:27:18.650Z,66.90
2019-06-07T09:32:23.000Z,67.30
2019-06-07T09:42:33.743Z,64.60
2019-06-07T09:47:38.082Z,64.80
2019-06-07T09:52:57.984Z,63.30
2019-06-07T09:57:48.491Z,62.50
2019-06-07T10:02:52.939Z,61.20
2019-06-07T10:08:06.774Z,59.90
2019-06-07T10:13:04.143Z,60.70
2019-06-07T10:18:09.192Z,61.00
2019-06-07T10:23:13.801Z,59.60
2019-06-07T10:28:18.159Z,61.40
2019-06-07T10:33:22.493Z,60.20
2019-06-07T10:38:26.842Z,59.70
2019-06-07T10:43:31.191Z,60.20
2019-06-07T10:48:35.526Z,59.60
2019-06-07T10:53:39.881Z,58.90
2019-06-07T10:58:44.234Z,58.90
2019-06-07T11:03:48.571Z,59.20
2019-06-07T11:08:52.912Z,58.80
2019-06-07T11:13:57.275Z,59.50
2019-06-07T11:19:01.612Z,58.60
2019-06-07T11:24:06.160Z,59.00
2019-06-07T11:29:10.909Z,58.90
2019-06-07T11:34:15.496Z,58.10
2019-06-07T11:39:19.829Z,58.00
2019-06-07T11:44:24.173Z,58.10
2019-06-07T11:49:28.522Z,58.00
2019-06-07T11:54:33.280Z,57.30
2019-06-07T11:59:37.616Z,57.80
2019-06-07T12:04:41.967Z,58.40
2019-06-07T12:09:56.473Z,57.80
2019-06-07T12:14:55.035Z,59.10
2019-06-07T12:19:59.373Z,59.00
2019-06-07T12:25:06.045Z,58.40
2019-06-07T12:30:19.398Z,59.10
2019-06-07T12:35:17.740Z,58.50
2019-06-07T12:40:30.579Z,57.70
2019-06-07T12:45:43.774Z,58.10
2019-06-07T12:50:42.694Z,58.50
2019-06-07T12:55:40.584Z,58.60
2019-06-07T13:00:44.929Z,58.30
2019-06-07T13:05:49.283Z,58.40
2019-06-07T13:10:53.611Z,58.80
2019-06-07T13:15:57.957Z,58.80
2019-06-07T13:21:02.306Z,59.00
2019-06-07T13:26:06.663Z,58.90
2019-06-07T13:31:11.006Z,59.10
2019-06-07T13:36:16.058Z,58.90
2019-06-07T13:41:35.274Z,59.60
2019-06-07T13:46:27.159Z,59.30
2019-06-07T13:51:33.377Z,59.30
2019-06-07T13:56:37.914Z,58.60
2019-06-07T14:01:42.332Z,58.30
2019-06-07T14:06:46.650Z,58.20
2019-06-07T14:11:51.195Z,57.50
2019-06-07T14:16:55.599Z,58.00
2019-06-07T14:22:00.151Z,58.00
2019-06-07T14:27:23.911Z,58.00
2019-06-07T14:32:28.746Z,57.80
2019-06-07T14:37:33.218Z,58.10
2019-06-07T14:42:37.538Z,59.10
2019-06-07T14:47:41.891Z,62.40
2019-06-07T14:52:46.260Z,64.90
2019-06-07T14:57:50.609Z,66.80
2019-06-07T15:02:54.959Z,68.70
2019-06-07T15:07:59.418Z,69.40
2019-06-07T15:13:03.918Z,70.00
2019-06-07T15:18:08.267Z,70.80
2019-06-07T15:23:12.617Z,71.50
2019-06-07T15:28:16.949Z,70.90
2019-06-07T15:33:36.504Z,71.80
2019-06-07T15:38:40.927Z,72.40
2019-06-07T15:43:45.319Z,73.30
2019-06-07T15:48:50.227Z,72.80
2019-06-07T15:53:54.611Z,72.10
2019-06-07T15:58:58.958Z,72.50
2019-06-07T16:04:03.747Z,72.70
2019-06-07T16:09:09.137Z,73.00
2019-06-07T16:14:13.781Z,72.70
2019-06-07T16:19:18.117Z,72.60
2019-06-07T16:24:22.477Z,73.20
2019-06-07T16:29:26.809Z,72.20
2019-06-07T16:34:31.148Z,72.30
2019-06-07T16:39:36.095Z,72.40
2019-06-07T16:44:40.734Z,73.40
2019-06-07T16:49:45.316Z,74.00
2019-06-07T16:54:49.684Z,74.90
2019-06-07T16:59:54.032Z,74.90
2019-06-07T17:04:58.391Z,74.30
2019-06-07T17:10:03.810Z,75.10
2019-06-07T17:15:10.360Z,75.60
2019-06-07T17:20:16.748Z,75.70
2019-06-07T17:25:21.490Z,75.80
2019-06-07T17:30:46.119Z,75.40
2019-06-07T17:35:50.722Z,75.10
2019-06-07T17:40:55.082Z,75.40
2019-06-07T17:45:59.433Z,74.90
2019-06-07T17:51:03.881Z,74.90
2019-06-07T17:56:08.207Z,74.40
2019-06-07T18:01:12.563Z,74.30
2019-06-07T18:06:18.515Z,73.60
2019-06-07T18:11:23.030Z,73.90
2019-06-07T18:16:27.367Z,74.10
2019-06-07T18:21:31.723Z,73.80
2019-06-07T18:26:36.096Z,74.00
2019-06-07T18:31:40.452Z,73.90
2019-06-07T18:36:44.811Z,73.40
2019-06-07T18:41:49.152Z,73.60
2019-06-07T18:46:55.822Z,72.10
2019-06-07T18:52:16.644Z,72.50
2019-06-07T18:57:21.007Z,71.50
2019-06-07T19:02:25.371Z,71.40
2019-06-07T19:07:29.707Z,71.60
2019-06-07T19:12:34.216Z,71.50
2019-06-07T19:17:39.027Z,71.20
2019-06-07T19:22:43.380Z,71.30
2019-06-07T19:27:47.912Z,70.80
2019-06-07T19:32:53.140Z,71.40
2019-06-07T19:37:57.917Z,70.70
2019-06-07T19:43:03.944Z,71.20
2019-06-07T19:48:08.701Z,71.30
2019-06-07T19:53:13.070Z,71.00
2019-06-07T19:58:17.413Z,71.30
2019-06-07T20:03:21.788Z,71.50
2019-06-07T20:08:26.870Z,71.10
2019-06-07T20:13:31.317Z,71.20
2019-06-07T20:18:35.619Z,71.10
2019-06-07T20:23:40.046Z,70.30
2019-06-07T20:28:44.389Z,70.00
2019-06-07T20:33:48.764Z,69.80
2019-06-07T20:38:53.120Z,70.30
2019-06-07T20:44:16.796Z,69.80
2019-06-07T20:49:21.145Z,69.10
2019-06-07T20:54:25.631Z,69.80
2019-06-07T20:59:29.983Z,69.50
2019-06-07T21:04:34.344Z,69.50
2019-06-07T21:09:38.711Z,69.90
2019-06-07T21:14:43.079Z,69.60
2019-06-07T21:19:47.432Z,69.30
2019-06-07T21:24:51.808Z,69.10
2019-06-07T21:29:56.176Z,69.40
2019-06-07T21:35:01.857Z,69.40
2019-06-07T21:40:08.183Z,69.20
2019-06-07T21:45:14.812Z,69.20
2019-06-07T21:50:20.195Z,67.90
2019-06-07T21:55:24.551Z,68.10
2019-06-07T22:00:54.751Z,67.50
2019-06-07T22:05:59.424Z,67.20
2019-06-07T22:11:03.871Z,66.60
2019-06-07T22:16:23.357Z,67.00
2019-06-07T22:21:14.774Z,66.60
2019-06-07T22:26:19.296Z,66.70
2019-06-07T22:31:23.680Z,66.50
2019-06-07T22:36:27.992Z,66.20
2019-06-07T22:41:32.405Z,66.30
2019-06-07T22:46:37.975Z,65.80
2019-06-07T22:51:42.378Z,66.00
2019-06-07T22:56:48.421Z,65.30
2019-06-07T23:01:52.812Z,65.60
2019-06-07T23:06:57.129Z,65.70
2019-06-07T23:12:01.502Z,65.60
2019-06-07T23:17:05.933Z,66.00
2019-06-07T23:22:10.302Z,66.10
2019-06-07T23:27:14.626Z,65.80
2019-06-07T23:32:20.190Z,65.40
2019-06-07T23:37:25.135Z,65.70
2019-06-07T23:42:29.490Z,65.40
2019-06-07T23:47:33.899Z,65.60
2019-06-07T23:52:38.248Z,64.90
2019-06-07T23:57:42.589Z,65.00
